EST,Max TemperatureF,Mean TemperatureF,Min TemperatureF,Max Dew PointF,MeanDew PointF,Min DewpointF,Max Humidity, Mean Humidity, Min Humidity, Max Sea Level PressureIn, Mean Sea Level PressureIn, Min Sea Level PressureIn, Max VisibilityMiles, Mean VisibilityMiles, Min VisibilityMiles, Max Wind SpeedMPH, Mean Wind SpeedMPH, Max Gust SpeedMPH,PrecipitationIn, CloudCover, Events, WindDirDegrees
2013-11-1,66,55,44,57,52,39,87,74,56,29.72,29.53,29.40,10,10,2,22,13,36,0.28,5,,199
2013-11-2,62,50,37,45,38,32,87,71,42,29.78,29.67,29.60,10,7,0,10,1,,0.05,5,,237
2013-11-3,44,36,28,37,20,12,76,51,31,30.42,30.12,29.80,10,10,10,17,11,26,0.00,3,,356
2013-11-4,41,30,19,16,14,10,80,57,31,30.69,30.61,30.45,10,10,7,9,1,,0.00,0,,315
2013-11-5,48,34,21,28,22,16,80,66,43,30.70,30.61,30.49,10,10,10,12,1,18,0.00,1,,199
2013-11-6,59,46,33,43,35,27,76,64,48,30.49,30.27,30.00,10,10,10,17,4,25,0.00,2,,195
2013-11-7,59,49,39,52,41,19,82,68,45,29.99,29.81,29.71,10,10,3,14,8,20,0.10,7,,239
2013-11-8,44,35,26,28,21,18,74,54,42,30.08,29.93,29.84,10,10,10,15,6,24,0.00,4,,272
2013-11-9,44,35,26,27,20,16,70,53,39,30.20,30.11,29.98,10,10,10,13,4,20,0.00,3,,258
2013-11-10,46,39,32,34,30,25,81,65,49,29.97,29.82,29.73,10,9,0,14,3,21,0.00,6,,250
2013-11-11,48,42,37,27,23,21,61,47,34,30.08,29.98,29.88,10,10,10,14,8,25,0.00,5,,263
2013-11-12,44,34,24,30,16,10,70,52,41,30.20,30.07,29.88,10,10,3,17,7,26,0.00,4,,321
2013-11-13,33,25,17,12,9,5,73,52,32,30.30,30.23,30.13,10,10,10,12,3,17,0.00,1,,277
2013-11-14,48,36,24,25,18,12,74,54,34,30.12,30.08,30.05,10,10,10,10,4,,0.00,0,,231
2013-11-15,55,37,19,23,19,14,80,60,21,30.20,30.15,30.10,10,10,9,5,0,,0.00,0,,225
2013-11-16,57,42,28,28,25,21,80,61,31,30.32,30.28,30.20,10,10,10,7,1,,0.00,2,,204
2013-11-17,53,40,26,48,34,21,88,77,70,30.31,30.15,29.81,10,9,3,9,2,,0.02,6,,163
2013-11-18,62,53,44,55,41,25,88,62,36,29.79,29.60,29.50,10,9,2,17,6,30,0.43,5,,237
2013-11-19,44,36,28,25,17,10,60,46,38,30.32,29.99,29.69,10,10,10,20,10,26,0.00,4,,310
2013-11-20,37,28,19,14,11,9,74,52,33,30.63,30.53,30.33,10,10,10,17,5,20,0.00,0,,346
2013-11-21,46,30,15,21,15,9,79,59,29,30.64,30.54,30.37,10,10,9,9,1,,0.00,1,,205
2013-11-22,41,36,32,36,31,23,87,80,65,30.36,30.09,29.83,10,5,0,4,0,,0.17,8,,10
2013-11-23,44,36,26,36,19,3,87,51,34,29.95,29.86,29.79,10,10,2,17,6,28,0.00,3,,273
2013-11-24,26,22,17,7,-1,-6,50,38,26,30.21,29.99,29.81,10,10,10,30,12,41,0.00,1,,313
2013-11-25,32,20,8,10,1,-8,62,39,26,30.37,30.29,30.21,10,10,10,13,5,17,0.00,1,,256
2013-11-26,35,32,28,28,19,9,87,62,40,30.30,30.22,30.02,10,8,2,13,5,18,0.13,7,,201
2013-11-27,46,39,32,43,35,25,87,80,65,30.00,29.47,29.30,10,7,1,9,4,20,1.03,8,,331
2013-11-28,35,26,17,25,9,1,68,48,31,30.41,30.05,29.50,10,10,10,16,9,28,0.01,2,,274
2013-11-29,30,21,12,10,6,-2,79,54,27,30.73,30.56,30.41,10,10,10,15,4,21,0.00,2,,331
2013-11-30,30,18,6,16,6,0,73,59,37,30.79,30.65,30.40,10,10,7,13,1,,0.00,1,,206